sensor_id;sensor_type;location;lat;lon;timestamp;P1;durP1;ratioP1;P2;durP2;ratioP2
44955;SDS011;30686;52.512;-1.188;2023-01-08T00:00:00;20.90;;;2.60;;
44955;SDS011;30686;52.512;-1.188;2023-01-08T00:02:28;14.63;;;2.50;;
44955;SDS011;30686;52.512;-1.188;2023-01-08T00:04:54;14.15;;;2.15;;
44955;SDS011;30686;52.512;-1.188;2023-01-08T00:07:21;16.33;;;3.47;;
44955;SDS011;30686;52.512;-1.188;2023-01-08T00:09:47;18.83;;;3.13;;
44955;SDS011;30686;52.512;-1.188;2023-01-08T00:12:15;13.63;;;4.00;;
44955;SDS011;30686;52.512;-1.188;2023-01-08T00:14:41;13.00;;;3.22;;
44955;SDS011;30686;52.512;-1.188;2023-01-08T00:17:07;13.68;;;2.35;;
44955;SDS011;30686;52.512;-1.188;2023-01-08T00:19:33;14.60;;;2.38;;
44955;SDS011;30686;52.512;-1.188;2023-01-08T00:22:00;11.52;;;2.88;;
44955;SDS011;30686;52.512;-1.188;2023-01-08T00:24:26;9.20;;;1.85;;
44955;SDS011;30686;52.512;-1.188;2023-01-08T00:26:52;14.45;;;2.58;;
44955;SDS011;30686;52.512;-1.188;2023-01-08T00:29:19;13.98;;;2.35;;
44955;SDS011;30686;52.512;-1.188;2023-01-08T00:31:45;12.90;;;2.92;;
44955;SDS011;30686;52.512;-1.188;2023-01-08T00:34:11;17.92;;;3.42;;
44955;SDS011;30686;52.512;-1.188;2023-01-08T00:36:38;14.60;;;2.78;;
44955;SDS011;30686;52.512;-1.188;2023-01-08T00:39:04;8.10;;;1.70;;
44955;SDS011;30686;52.512;-1.188;2023-01-08T00:41:30;11.82;;;1.98;;
44955;SDS011;30686;52.512;-1.188;2023-01-08T00:43:56;15.43;;;2.97;;
44955;SDS011;30686;52.512;-1.188;2023-01-08T00:46:23;9.55;;;2.33;;
44955;SDS011;30686;52.512;-1.188;2023-01-08T00:48:51;11.05;;;2.45;;
44955;SDS011;30686;52.512;-1.188;2023-01-08T00:51:20;11.55;;;2.42;;
44955;SDS011;30686;52.512;-1.188;2023-01-08T00:53:46;12.10;;;2.55;;
44955;SDS011;30686;52.512;-1.188;2023-01-08T00:56:12;15.40;;;2.53;;
44955;SDS011;30686;52.512;-1.188;2023-01-08T00:58:38;17.35;;;3.08;;
44955;SDS011;30686;52.512;-1.188;2023-01-08T01:01:13;13.30;;;2.47;;
44955;SDS011;30686;52.512;-1.188;2023-01-08T01:03:39;16.45;;;3.38;;
44955;SDS011;30686;52.512;-1.188;2023-01-08T01:06:06;15.35;;;2.80;;
44955;SDS011;30686;52.512;-1.188;2023-01-08T01:08:33;15.52;;;3.33;;
44955;SDS011;30686;52.512;-1.188;2023-01-08T01:10:59;12.23;;;3.10;;
44955;SDS011;30686;52.512;-1.188;2023-01-08T01:13:26;12.73;;;2.63;;
44955;SDS011;30686;52.512;-1.188;2023-01-08T01:15:58;15.00;;;2.60;;
44955;SDS011;30686;52.512;-1.188;2023-01-08T01:18:25;18.73;;;2.83;;
44955;SDS011;30686;52.512;-1.188;2023-01-08T01:20:52;14.18;;;2.75;;
44955;SDS011;30686;52.512;-1.188;2023-01-08T01:23:18;14.75;;;3.72;;
44955;SDS011;30686;52.512;-1.188;2023-01-08T01:25:45;15.27;;;2.75;;
44955;SDS011;30686;52.512;-1.188;2023-01-08T01:28:11;18.10;;;2.20;;
44955;SDS011;30686;52.512;-1.188;2023-01-08T01:30:37;14.75;;;2.72;;
44955;SDS011;30686;52.512;-1.188;2023-01-08T01:33:03;9.93;;;2.22;;
44955;SDS011;30686;52.512;-1.188;2023-01-08T01:35:30;14.02;;;3.00;;
44955;SDS011;30686;52.512;-1.188;2023-01-08T01:37:56;14.18;;;1.85;;
44955;SDS011;30686;52.512;-1.188;2023-01-08T01:40:22;11.20;;;2.42;;
44955;SDS011;30686;52.512;-1.188;2023-01-08T01:42:48;8.77;;;2.70;;
44955;SDS011;30686;52.512;-1.188;2023-01-08T01:47:41;7.78;;;2.53;;
44955;SDS011;30686;52.512;-1.188;2023-01-08T01:50:13;12.02;;;2.53;;
44955;SDS011;30686;52.512;-1.188;2023-01-08T01:52:44;16.45;;;2.58;;
44955;SDS011;30686;52.512;-1.188;2023-01-08T01:55:12;13.30;;;2.30;;
44955;SDS011;30686;52.512;-1.188;2023-01-08T01:57:39;14.18;;;2.60;;
44955;SDS011;30686;52.512;-1.188;2023-01-08T02:00:07;10.80;;;2.35;;
44955;SDS011;30686;52.512;-1.188;2023-01-08T02:02:33;12.65;;;3.63;;
44955;SDS011;30686;52.512;-1.188;2023-01-08T02:05:00;7.05;;;1.65;;
44955;SDS011;30686;52.512;-1.188;2023-01-08T02:07:34;8.85;;;2.03;;
44955;SDS011;30686;52.512;-1.188;2023-01-08T02:10:10;7.00;;;1.75;;
44955;SDS011;30686;52.512;-1.188;2023-01-08T02:12:40;11.65;;;2.15;;
44955;SDS011;30686;52.512;-1.188;2023-01-08T02:15:12;12.50;;;2.33;;
44955;SDS011;30686;52.512;-1.188;2023-01-08T02:17:51;10.75;;;2.10;;
44955;SDS011;30686;52.512;-1.188;2023-01-08T02:20:22;14.20;;;2.95;;
44955;SDS011;30686;52.512;-1.188;2023-01-08T02:28:31;11.55;;;2.42;;
44955;SDS011;30686;52.512;-1.188;2023-01-08T02:30:59;14.90;;;2.25;;
44955;SDS011;30686;52.512;-1.188;2023-01-08T02:33:28;8.93;;;2.35;;
44955;SDS011;30686;52.512;-1.188;2023-01-08T02:38:44;16.90;;;2.40;;
44955;SDS011;30686;52.512;-1.188;2023-01-08T02:41:13;15.68;;;1.88;;
44955;SDS011;30686;52.512;-1.188;2023-01-08T02:46:05;16.83;;;2.33;;
44955;SDS011;30686;52.512;-1.188;2023-01-08T02:51:26;11.82;;;1.83;;
44955;SDS011;30686;52.512;-1.188;2023-01-08T02:53:56;9.38;;;2.08;;
44955;SDS011;30686;52.512;-1.188;2023-01-08T02:56:27;19.90;;;2.95;;
44955;SDS011;30686;52.512;-1.188;2023-01-08T02:58:56;7.50;;;1.67;;
44955;SDS011;30686;52.512;-1.188;2023-01-08T03:06:22;15.27;;;1.83;;
44955;SDS011;30686;52.512;-1.188;2023-01-08T03:08:52;11.60;;;2.25;;
44955;SDS011;30686;52.512;-1.188;2023-01-08T03:11:22;10.70;;;1.63;;
44955;SDS011;30686;52.512;-1.188;2023-01-08T03:13:56;11.38;;;2.25;;
44955;SDS011;30686;52.512;-1.188;2023-01-08T03:16:24;14.13;;;1.70;;
44955;SDS011;30686;52.512;-1.188;2023-01-08T03:18:57;17.90;;;2.10;;
44955;SDS011;30686;52.512;-1.188;2023-01-08T03:21:25;5.85;;;1.80;;
44955;SDS011;30686;52.512;-1.188;2023-01-08T03:23:52;12.57;;;1.75;;
44955;SDS011;30686;52.512;-1.188;2023-01-08T03:26:23;10.73;;;2.03;;
44955;SDS011;30686;52.512;-1.188;2023-01-08T03:28:53;5.97;;;1.33;;
44955;SDS011;30686;52.512;-1.188;2023-01-08T03:31:23;8.98;;;1.70;;
44955;SDS011;30686;52.512;-1.188;2023-01-08T03:33:53;19.33;;;2.72;;
44955;SDS011;30686;52.512;-1.188;2023-01-08T03:36:21;6.10;;;1.15;;
44955;SDS011;30686;52.512;-1.188;2023-01-08T03:39:35;5.00;;;1.58;;
44955;SDS011;30686;52.512;-1.188;2023-01-08T03:41:35;4.10;;;1.45;;
44955;SDS011;30686;52.512;-1.188;2023-01-08T03:44:01;15.23;;;1.73;;
44955;SDS011;30686;52.512;-1.188;2023-01-08T03:46:31;4.00;;;1.65;;
44955;SDS011;30686;52.512;-1.188;2023-01-08T03:48:58;7.30;;;1.75;;
44955;SDS011;30686;52.512;-1.188;2023-01-08T03:51:27;5.63;;;1.33;;
44955;SDS011;30686;52.512;-1.188;2023-01-08T03:53:55;4.20;;;1.00;;
44955;SDS011;30686;52.512;-1.188;2023-01-08T03:56:23;2.65;;;1.20;;
44955;SDS011;30686;52.512;-1.188;2023-01-08T03:58:53;8.00;;;1.83;;
44955;SDS011;30686;52.512;-1.188;2023-01-08T04:01:19;9.27;;;1.83;;
44955;SDS011;30686;52.512;-1.188;2023-01-08T04:03:45;9.48;;;1.75;;
44955;SDS011;30686;52.512;-1.188;2023-01-08T04:06:11;8.05;;;2.67;;
44955;SDS011;30686;52.512;-1.188;2023-01-08T04:08:37;8.73;;;1.38;;
44955;SDS011;30686;52.512;-1.188;2023-01-08T04:11:04;9.05;;;1.38;;
44955;SDS011;30686;52.512;-1.188;2023-01-08T04:13:33;14.63;;;2.38;;
44955;SDS011;30686;52.512;-1.188;2023-01-08T04:15:59;8.35;;;1.83;;
44955;SDS011;30686;52.512;-1.188;2023-01-08T04:18:25;7.75;;;2.13;;
44955;SDS011;30686;52.512;-1.188;2023-01-08T04:20:51;7.28;;;1.67;;
44955;SDS011;30686;52.512;-1.188;2023-01-08T04:23:17;7.32;;;1.95;;
44955;SDS011;30686;52.512;-1.188;2023-01-08T04:25:44;4.95;;;1.13;;
44955;SDS011;30686;52.512;-1.188;2023-01-08T04:28:10;10.15;;;2.38;;
44955;SDS011;30686;52.512;-1.188;2023-01-08T04:30:36;11.55;;;1.73;;
44955;SDS011;30686;52.512;-1.188;2023-01-08T04:33:02;10.40;;;2.33;;
44955;SDS011;30686;52.512;-1.188;2023-01-08T04:35:29;10.85;;;2.25;;
44955;SDS011;30686;52.512;-1.188;2023-01-08T04:37:55;14.25;;;2.72;;
44955;SDS011;30686;52.512;-1.188;2023-01-08T04:40:24;14.23;;;2.08;;
44955;SDS011;30686;52.512;-1.188;2023-01-08T04:42:53;8.55;;;2.15;;
44955;SDS011;30686;52.512;-1.188;2023-01-08T04:45:19;12.57;;;2.03;;
44955;SDS011;30686;52.512;-1.188;2023-01-08T04:47:46;7.03;;;1.60;;
44955;SDS011;30686;52.512;-1.188;2023-01-08T04:50:12;19.25;;;2.25;;
44955;SDS011;30686;52.512;-1.188;2023-01-08T04:52:38;11.88;;;2.00;;
44955;SDS011;30686;52.512;-1.188;2023-01-08T04:55:05;18.50;;;1.90;;
44955;SDS011;30686;52.512;-1.188;2023-01-08T04:57:34;12.38;;;2.08;;
44955;SDS011;30686;52.512;-1.188;2023-01-08T05:00:02;7.97;;;3.13;;
44955;SDS011;30686;52.512;-1.188;2023-01-08T05:02:32;10.20;;;2.17;;
44955;SDS011;30686;52.512;-1.188;2023-01-08T05:04:58;10.30;;;2.45;;
44955;SDS011;30686;52.512;-1.188;2023-01-08T05:07:24;10.15;;;2.63;;
44955;SDS011;30686;52.512;-1.188;2023-01-08T05:09:52;10.80;;;2.03;;
44955;SDS011;30686;52.512;-1.188;2023-01-08T05:12:19;15.43;;;2.20;;
44955;SDS011;30686;52.512;-1.188;2023-01-08T05:14:45;10.27;;;2.72;;
44955;SDS011;30686;52.512;-1.188;2023-01-08T05:17:14;16.00;;;2.17;;
44955;SDS011;30686;52.512;-1.188;2023-01-08T05:19:41;11.68;;;2.45;;
44955;SDS011;30686;52.512;-1.188;2023-01-08T05:22:07;11.60;;;2.10;;
44955;SDS011;30686;52.512;-1.188;2023-01-08T05:24:33;5.60;;;1.58;;
44955;SDS011;30686;52.512;-1.188;2023-01-08T05:27:05;11.18;;;1.75;;
44955;SDS011;30686;52.512;-1.188;2023-01-08T05:29:32;7.70;;;1.60;;
44955;SDS011;30686;52.512;-1.188;2023-01-08T05:31:58;6.72;;;2.25;;
44955;SDS011;30686;52.512;-1.188;2023-01-08T05:34:24;18.45;;;3.08;;
44955;SDS011;30686;52.512;-1.188;2023-01-08T05:36:51;11.55;;;2.30;;
44955;SDS011;30686;52.512;-1.188;2023-01-08T05:39:19;8.40;;;1.23;;
44955;SDS011;30686;52.512;-1.188;2023-01-08T05:41:46;6.82;;;1.70;;
44955;SDS011;30686;52.512;-1.188;2023-01-08T05:44:12;3.83;;;1.48;;
44955;SDS011;30686;52.512;-1.188;2023-01-08T05:46:38;10.75;;;1.73;;
44955;SDS011;30686;52.512;-1.188;2023-01-08T05:49:04;8.13;;;1.40;;
44955;SDS011;30686;52.512;-1.188;2023-01-08T05:51:33;6.93;;;1.42;;
44955;SDS011;30686;52.512;-1.188;2023-01-08T05:53:59;14.45;;;1.95;;
44955;SDS011;30686;52.512;-1.188;2023-01-08T05:56:25;8.57;;;1.33;;
44955;SDS011;30686;52.512;-1.188;2023-01-08T05:58:53;5.50;;;1.55;;
44955;SDS011;30686;52.512;-1.188;2023-01-08T06:01:21;6.28;;;1.70;;
44955;SDS011;30686;52.512;-1.188;2023-01-08T06:03:47;6.80;;;1.30;;
44955;SDS011;30686;52.512;-1.188;2023-01-08T06:06:13;4.93;;;1.27;;
44955;SDS011;30686;52.512;-1.188;2023-01-08T06:08:40;6.97;;;1.67;;
44955;SDS011;30686;52.512;-1.188;2023-01-08T06:11:07;6.78;;;1.48;;
44955;SDS011;30686;52.512;-1.188;2023-01-08T06:13:39;6.95;;;1.40;;
44955;SDS011;30686;52.512;-1.188;2023-01-08T06:16:06;3.80;;;1.05;;
44955;SDS011;30686;52.512;-1.188;2023-01-08T06:18:32;8.07;;;1.30;;
44955;SDS011;30686;52.512;-1.188;2023-01-08T06:21:00;5.22;;;1.20;;
44955;SDS011;30686;52.512;-1.188;2023-01-08T06:23:26;6.20;;;1.42;;
44955;SDS011;30686;52.512;-1.188;2023-01-08T06:25:58;4.03;;;1.25;;
44955;SDS011;30686;52.512;-1.188;2023-01-08T06:28:25;3.55;;;1.30;;
44955;SDS011;30686;52.512;-1.188;2023-01-08T06:30:51;7.15;;;1.23;;
44955;SDS011;30686;52.512;-1.188;2023-01-08T06:33:18;5.00;;;1.48;;
44955;SDS011;30686;52.512;-1.188;2023-01-08T06:35:44;6.28;;;1.17;;
44955;SDS011;30686;52.512;-1.188;2023-01-08T06:38:11;3.03;;;1.38;;
44955;SDS011;30686;52.512;-1.188;2023-01-08T06:40:40;7.93;;;1.40;;
44955;SDS011;30686;52.512;-1.188;2023-01-08T06:43:06;2.45;;;1.30;;
44955;SDS011;30686;52.512;-1.188;2023-01-08T06:45:32;4.20;;;0.88;;
44955;SDS011;30686;52.512;-1.188;2023-01-08T06:47:59;2.92;;;1.00;;
44955;SDS011;30686;52.512;-1.188;2023-01-08T06:50:26;6.90;;;1.27;;
44955;SDS011;30686;52.512;-1.188;2023-01-08T06:52:55;5.63;;;1.23;;
44955;SDS011;30686;52.512;-1.188;2023-01-08T06:55:22;1.92;;;0.73;;
44955;SDS011;30686;52.512;-1.188;2023-01-08T06:57:53;3.75;;;0.95;;
44955;SDS011;30686;52.512;-1.188;2023-01-08T07:00:19;1.25;;;0.80;;
44955;SDS011;30686;52.512;-1.188;2023-01-08T07:02:50;2.22;;;0.82;;
44955;SDS011;30686;52.512;-1.188;2023-01-08T07:05:19;3.95;;;0.85;;
44955;SDS011;30686;52.512;-1.188;2023-01-08T07:07:45;1.25;;;0.70;;
44955;SDS011;30686;52.512;-1.188;2023-01-08T07:10:11;4.63;;;1.15;;
44955;SDS011;30686;52.512;-1.188;2023-01-08T07:12:38;4.95;;;0.93;;
44955;SDS011;30686;52.512;-1.188;2023-01-08T07:15:04;3.10;;;1.02;;
44955;SDS011;30686;52.512;-1.188;2023-01-08T07:17:31;6.90;;;0.95;;
44955;SDS011;30686;52.512;-1.188;2023-01-08T07:19:57;2.15;;;1.02;;
44955;SDS011;30686;52.512;-1.188;2023-01-08T07:22:26;2.28;;;1.02;;
44955;SDS011;30686;52.512;-1.188;2023-01-08T07:24:52;2.45;;;0.90;;
44955;SDS011;30686;52.512;-1.188;2023-01-08T07:27:18;2.13;;;1.13;;
44955;SDS011;30686;52.512;-1.188;2023-01-08T07:29:47;3.42;;;1.00;;
44955;SDS011;30686;52.512;-1.188;2023-01-08T07:32:14;5.30;;;1.17;;
44955;SDS011;30686;52.512;-1.188;2023-01-08T07:34:40;4.05;;;1.20;;
44955;SDS011;30686;52.512;-1.188;2023-01-08T07:37:08;1.42;;;1.33;;
44955;SDS011;30686;52.512;-1.188;2023-01-08T07:39:35;4.82;;;1.10;;
44955;SDS011;30686;52.512;-1.188;2023-01-08T07:42:01;3.83;;;1.35;;
44955;SDS011;30686;52.512;-1.188;2023-01-08T07:44:27;9.45;;;1.30;;
44955;SDS011;30686;52.512;-1.188;2023-01-08T07:46:54;3.60;;;1.10;;
44955;SDS011;30686;52.512;-1.188;2023-01-08T07:49:20;5.63;;;3.35;;
44955;SDS011;30686;52.512;-1.188;2023-01-08T07:51:49;5.85;;;1.27;;
44955;SDS011;30686;52.512;-1.188;2023-01-08T07:54:22;3.45;;;1.17;;
44955;SDS011;30686;52.512;-1.188;2023-01-08T07:56:50;2.10;;;0.95;;
44955;SDS011;30686;52.512;-1.188;2023-01-08T07:59:18;4.95;;;1.35;;
44955;SDS011;30686;52.512;-1.188;2023-01-08T08:01:45;4.00;;;1.27;;
44955;SDS011;30686;52.512;-1.188;2023-01-08T08:04:13;1.40;;;0.90;;
44955;SDS011;30686;52.512;-1.188;2023-01-08T08:06:40;3.10;;;0.82;;
44955;SDS011;30686;52.512;-1.188;2023-01-08T08:09:09;3.30;;;1.02;;
44955;SDS011;30686;52.512;-1.188;2023-01-08T08:11:37;2.58;;;1.08;;
44955;SDS011;30686;52.512;-1.188;2023-01-08T08:14:10;1.58;;;0.90;;
44955;SDS011;30686;52.512;-1.188;2023-01-08T08:16:39;7.07;;;1.55;;
44955;SDS011;30686;52.512;-1.188;2023-01-08T08:19:05;5.30;;;1.10;;
44955;SDS011;30686;52.512;-1.188;2023-01-08T08:21:34;5.82;;;1.52;;
44955;SDS011;30686;52.512;-1.188;2023-01-08T08:24:00;4.07;;;0.93;;
44955;SDS011;30686;52.512;-1.188;2023-01-08T08:26:26;4.35;;;1.10;;
44955;SDS011;30686;52.512;-1.188;2023-01-08T08:28:55;2.25;;;0.90;;
44955;SDS011;30686;52.512;-1.188;2023-01-08T08:31:22;4.57;;;0.95;;
44955;SDS011;30686;52.512;-1.188;2023-01-08T08:33:48;4.70;;;1.10;;
44955;SDS011;30686;52.512;-1.188;2023-01-08T08:36:14;4.78;;;1.20;;
44955;SDS011;30686;52.512;-1.188;2023-01-08T08:38:41;3.90;;;0.90;;
44955;SDS011;30686;52.512;-1.188;2023-01-08T08:41:08;2.78;;;1.13;;
44955;SDS011;30686;52.512;-1.188;2023-01-08T08:43:34;4.95;;;1.05;;
44955;SDS011;30686;52.512;-1.188;2023-01-08T08:46:02;3.72;;;0.90;;
44955;SDS011;30686;52.512;-1.188;2023-01-08T08:48:29;3.15;;;1.13;;
44955;SDS011;30686;52.512;-1.188;2023-01-08T08:50:55;4.45;;;0.82;;
44955;SDS011;30686;52.512;-1.188;2023-01-08T08:53:21;2.35;;;1.15;;
44955;SDS011;30686;52.512;-1.188;2023-01-08T08:55:48;9.50;;;1.73;;
44955;SDS011;30686;52.512;-1.188;2023-01-08T08:58:14;3.80;;;1.48;;
44955;SDS011;30686;52.512;-1.188;2023-01-08T09:00:41;4.72;;;1.20;;
44955;SDS011;30686;52.512;-1.188;2023-01-08T09:03:11;6.03;;;1.33;;
44955;SDS011;30686;52.512;-1.188;2023-01-08T09:05:38;2.97;;;0.93;;
44955;SDS011;30686;52.512;-1.188;2023-01-08T09:08:04;5.65;;;1.17;;
44955;SDS011;30686;52.512;-1.188;2023-01-08T09:10:35;3.15;;;1.40;;
44955;SDS011;30686;52.512;-1.188;2023-01-08T09:13:02;7.38;;;1.15;;
44955;SDS011;30686;52.512;-1.188;2023-01-08T09:15:28;3.95;;;1.23;;
44955;SDS011;30686;52.512;-1.188;2023-01-08T09:17:55;8.63;;;1.55;;
44955;SDS011;30686;52.512;-1.188;2023-01-08T09:20:21;5.10;;;2.10;;
44955;SDS011;30686;52.512;-1.188;2023-01-08T09:22:48;6.82;;;1.33;;
44955;SDS011;30686;52.512;-1.188;2023-01-08T09:25:14;10.02;;;1.30;;
44955;SDS011;30686;52.512;-1.188;2023-01-08T09:27:41;1.90;;;0.95;;
44955;SDS011;30686;52.512;-1.188;2023-01-08T09:30:07;3.63;;;1.67;;
44955;SDS011;30686;52.512;-1.188;2023-01-08T09:32:33;10.25;;;1.75;;
44955;SDS011;30686;52.512;-1.188;2023-01-08T09:35:00;6.13;;;1.20;;
44955;SDS011;30686;52.512;-1.188;2023-01-08T09:37:26;12.45;;;1.70;;
44955;SDS011;30686;52.512;-1.188;2023-01-08T09:39:52;7.03;;;1.20;;
44955;SDS011;30686;52.512;-1.188;2023-01-08T09:42:20;4.10;;;1.00;;
44955;SDS011;30686;52.512;-1.188;2023-01-08T09:44:46;5.97;;;1.55;;
44955;SDS011;30686;52.512;-1.188;2023-01-08T09:47:27;8.25;;;1.25;;
44955;SDS011;30686;52.512;-1.188;2023-01-08T09:50:02;11.18;;;1.42;;
44955;SDS011;30686;52.512;-1.188;2023-01-08T09:52:35;12.35;;;2.00;;
44955;SDS011;30686;52.512;-1.188;2023-01-08T09:55:02;12.30;;;1.60;;
44955;SDS011;30686;52.512;-1.188;2023-01-08T09:57:31;9.13;;;1.58;;
44955;SDS011;30686;52.512;-1.188;2023-01-08T09:59:58;7.78;;;1.55;;
44955;SDS011;30686;52.512;-1.188;2023-01-08T10:02:27;7.65;;;1.42;;
44955;SDS011;30686;52.512;-1.188;2023-01-08T10:04:56;5.03;;;1.02;;
44955;SDS011;30686;52.512;-1.188;2023-01-08T10:07:23;4.57;;;1.13;;
44955;SDS011;30686;52.512;-1.188;2023-01-08T10:09:50;3.45;;;1.25;;
44955;SDS011;30686;52.512;-1.188;2023-01-08T10:12:21;7.65;;;1.17;;
44955;SDS011;30686;52.512;-1.188;2023-01-08T10:14:49;4.72;;;1.27;;
44955;SDS011;30686;52.512;-1.188;2023-01-08T10:19:56;7.32;;;2.33;;
44955;SDS011;30686;52.512;-1.188;2023-01-08T10:22:23;13.68;;;1.55;;
44955;SDS011;30686;52.512;-1.188;2023-01-08T10:24:50;6.55;;;1.77;;
44955;SDS011;30686;52.512;-1.188;2023-01-08T10:27:20;11.85;;;2.10;;
44955;SDS011;30686;52.512;-1.188;2023-01-08T10:29:50;16.42;;;2.35;;
44955;SDS011;30686;52.512;-1.188;2023-01-08T10:34:51;5.40;;;1.75;;
44955;SDS011;30686;52.512;-1.188;2023-01-08T10:39:50;5.00;;;1.65;;
44955;SDS011;30686;52.512;-1.188;2023-01-08T10:42:17;11.32;;;1.80;;
44955;SDS011;30686;52.512;-1.188;2023-01-08T10:44:50;13.13;;;1.65;;
44955;SDS011;30686;52.512;-1.188;2023-01-08T10:47:17;7.55;;;1.10;;
44955;SDS011;30686;52.512;-1.188;2023-01-08T10:49:46;6.88;;;1.35;;
44955;SDS011;30686;52.512;-1.188;2023-01-08T10:52:23;5.15;;;1.35;;
44955;SDS011;30686;52.512;-1.188;2023-01-08T10:54:50;13.30;;;1.55;;
44955;SDS011;30686;52.512;-1.188;2023-01-08T10:57:20;6.88;;;1.73;;
44955;SDS011;30686;52.512;-1.188;2023-01-08T10:59:47;10.38;;;2.15;;
44955;SDS011;30686;52.512;-1.188;2023-01-08T11:04:57;10.98;;;2.17;;
44955;SDS011;30686;52.512;-1.188;2023-01-08T11:07:27;7.22;;;1.65;;
44955;SDS011;30686;52.512;-1.188;2023-01-08T11:09:54;10.05;;;1.73;;
44955;SDS011;30686;52.512;-1.188;2023-01-08T11:14:49;6.57;;;1.85;;
44955;SDS011;30686;52.512;-1.188;2023-01-08T11:17:16;4.32;;;1.38;;
44955;SDS011;30686;52.512;-1.188;2023-01-08T11:19:42;4.22;;;1.50;;
44955;SDS011;30686;52.512;-1.188;2023-01-08T11:22:18;5.07;;;1.65;;
44955;SDS011;30686;52.512;-1.188;2023-01-08T11:24:49;11.93;;;1.50;;
44955;SDS011;30686;52.512;-1.188;2023-01-08T11:27:34;8.02;;;1.63;;
44955;SDS011;30686;52.512;-1.188;2023-01-08T11:30:20;8.90;;;2.05;;
44955;SDS011;30686;52.512;-1.188;2023-01-08T11:37:48;5.00;;;1.27;;
44955;SDS011;30686;52.512;-1.188;2023-01-08T11:53:14;6.13;;;1.92;;
44955;SDS011;30686;52.512;-1.188;2023-01-08T11:55:50;4.70;;;1.80;;
44955;SDS011;30686;52.512;-1.188;2023-01-08T11:58:26;5.47;;;1.10;;
44955;SDS011;30686;52.512;-1.188;2023-01-08T12:03:27;14.90;;;1.38;;
44955;SDS011;30686;52.512;-1.188;2023-01-08T12:08:54;7.75;;;2.30;;
44955;SDS011;30686;52.512;-1.188;2023-01-08T12:11:25;5.40;;;1.63;;
44955;SDS011;30686;52.512;-1.188;2023-01-08T12:19:17;10.40;;;1.20;;
44955;SDS011;30686;52.512;-1.188;2023-01-08T12:21:55;2.58;;;1.05;;
44955;SDS011;30686;52.512;-1.188;2023-01-08T12:32:22;1.90;;;0.75;;
44955;SDS011;30686;52.512;-1.188;2023-01-08T12:37:43;5.40;;;1.50;;
44955;SDS011;30686;52.512;-1.188;2023-01-08T12:40:19;5.60;;;0.95;;
44955;SDS011;30686;52.512;-1.188;2023-01-08T12:42:47;8.85;;;1.98;;
44955;SDS011;30686;52.512;-1.188;2023-01-08T12:45:16;2.72;;;1.25;;
44955;SDS011;30686;52.512;-1.188;2023-01-08T12:47:49;4.05;;;1.25;;
44955;SDS011;30686;52.512;-1.188;2023-01-08T13:00:48;2.20;;;1.25;;
44955;SDS011;30686;52.512;-1.188;2023-01-08T13:03:20;9.70;;;1.20;;
44955;SDS011;30686;52.512;-1.188;2023-01-08T13:05:48;3.33;;;0.93;;
44955;SDS011;30686;52.512;-1.188;2023-01-08T13:08:30;3.63;;;1.00;;
44955;SDS011;30686;52.512;-1.188;2023-01-08T13:10:59;4.37;;;1.77;;
44955;SDS011;30686;52.512;-1.188;2023-01-08T13:15:52;1.83;;;0.90;;
44955;SDS011;30686;52.512;-1.188;2023-01-08T13:18:19;5.07;;;1.33;;
44955;SDS011;30686;52.512;-1.188;2023-01-08T13:20:55;2.63;;;0.90;;
44955;SDS011;30686;52.512;-1.188;2023-01-08T13:23:23;1.85;;;1.02;;
44955;SDS011;30686;52.512;-1.188;2023-01-08T13:25:57;1.23;;;0.88;;
44955;SDS011;30686;52.512;-1.188;2023-01-08T13:30:53;4.88;;;1.10;;
44955;SDS011;30686;52.512;-1.188;2023-01-08T13:33:36;3.42;;;1.15;;
44955;SDS011;30686;52.512;-1.188;2023-01-08T13:36:20;2.13;;;0.93;;
44955;SDS011;30686;52.512;-1.188;2023-01-08T13:41:30;2.20;;;1.42;;
44955;SDS011;30686;52.512;-1.188;2023-01-08T13:43:59;2.75;;;0.55;;
44955;SDS011;30686;52.512;-1.188;2023-01-08T13:46:25;3.67;;;0.82;;
44955;SDS011;30686;52.512;-1.188;2023-01-08T13:49:05;1.67;;;0.85;;
44955;SDS011;30686;52.512;-1.188;2023-01-08T13:51:45;2.00;;;0.90;;
44955;SDS011;30686;52.512;-1.188;2023-01-08T13:54:19;1.00;;;0.70;;
44955;SDS011;30686;52.512;-1.188;2023-01-08T13:56:53;1.02;;;0.60;;
44955;SDS011;30686;52.512;-1.188;2023-01-08T13:59:41;3.20;;;1.05;;
44955;SDS011;30686;52.512;-1.188;2023-01-08T14:05:10;1.50;;;0.70;;
44955;SDS011;30686;52.512;-1.188;2023-01-08T14:07:37;0.50;;;0.50;;
44955;SDS011;30686;52.512;-1.188;2023-01-08T14:10:07;2.72;;;0.52;;
44955;SDS011;30686;52.512;-1.188;2023-01-08T14:12:40;1.33;;;0.80;;
44955;SDS011;30686;52.512;-1.188;2023-01-08T14:15:21;2.95;;;0.70;;
44955;SDS011;30686;52.512;-1.188;2023-01-08T14:17:48;1.20;;;0.70;;
44955;SDS011;30686;52.512;-1.188;2023-01-08T14:20:18;8.95;;;1.10;;
44955;SDS011;30686;52.512;-1.188;2023-01-08T14:22:47;0.43;;;0.40;;
44955;SDS011;30686;52.512;-1.188;2023-01-08T14:25:19;1.60;;;0.70;;
44955;SDS011;30686;52.512;-1.188;2023-01-08T14:30:51;2.20;;;0.60;;
44955;SDS011;30686;52.512;-1.188;2023-01-08T14:33:19;1.05;;;0.73;;
44955;SDS011;30686;52.512;-1.188;2023-01-08T14:35:52;1.13;;;0.60;;
44955;SDS011;30686;52.512;-1.188;2023-01-08T14:38:22;3.20;;;1.00;;
44955;SDS011;30686;52.512;-1.188;2023-01-08T14:40:50;3.55;;;0.80;;
44955;SDS011;30686;52.512;-1.188;2023-01-08T14:43:44;4.30;;;1.25;;
44955;SDS011;30686;52.512;-1.188;2023-01-08T14:46:14;6.13;;;0.98;;
44955;SDS011;30686;52.512;-1.188;2023-01-08T14:48:46;3.25;;;0.88;;
44955;SDS011;30686;52.512;-1.188;2023-01-08T14:51:24;1.77;;;0.55;;
44955;SDS011;30686;52.512;-1.188;2023-01-08T14:53:52;0.85;;;0.52;;
44955;SDS011;30686;52.512;-1.188;2023-01-08T14:56:20;3.25;;;0.82;;
44955;SDS011;30686;52.512;-1.188;2023-01-08T14:58:47;1.42;;;0.70;;
44955;SDS011;30686;52.512;-1.188;2023-01-08T15:01:15;4.75;;;0.90;;
44955;SDS011;30686;52.512;-1.188;2023-01-08T15:03:43;3.00;;;1.02;;
44955;SDS011;30686;52.512;-1.188;2023-01-08T15:06:10;4.68;;;1.00;;
44955;SDS011;30686;52.512;-1.188;2023-01-08T15:08:41;0.98;;;0.90;;
44955;SDS011;30686;52.512;-1.188;2023-01-08T15:13:45;1.65;;;1.05;;
44955;SDS011;30686;52.512;-1.188;2023-01-08T15:18:51;1.58;;;0.65;;
44955;SDS011;30686;52.512;-1.188;2023-01-08T15:21:21;1.38;;;0.88;;
44955;SDS011;30686;52.512;-1.188;2023-01-08T15:23:51;4.88;;;0.80;;
44955;SDS011;30686;52.512;-1.188;2023-01-08T15:26:19;3.60;;;0.98;;
44955;SDS011;30686;52.512;-1.188;2023-01-08T15:28:58;2.67;;;1.05;;
44955;SDS011;30686;52.512;-1.188;2023-01-08T15:31:29;8.48;;;0.95;;
44955;SDS011;30686;52.512;-1.188;2023-01-08T15:33:56;6.30;;;0.85;;
44955;SDS011;30686;52.512;-1.188;2023-01-08T15:36:22;2.50;;;1.00;;
44955;SDS011;30686;52.512;-1.188;2023-01-08T15:38:52;4.00;;;0.88;;
44955;SDS011;30686;52.512;-1.188;2023-01-08T15:41:19;0.85;;;0.70;;
44955;SDS011;30686;52.512;-1.188;2023-01-08T15:44:04;1.60;;;1.00;;
44955;SDS011;30686;52.512;-1.188;2023-01-08T15:46:31;2.38;;;0.90;;
44955;SDS011;30686;52.512;-1.188;2023-01-08T15:48:57;2.78;;;0.82;;
44955;SDS011;30686;52.512;-1.188;2023-01-08T15:51:24;1.85;;;0.88;;
44955;SDS011;30686;52.512;-1.188;2023-01-08T15:53:51;1.42;;;0.73;;
44955;SDS011;30686;52.512;-1.188;2023-01-08T15:56:18;1.27;;;0.70;;
44955;SDS011;30686;52.512;-1.188;2023-01-08T15:58:44;2.00;;;0.95;;
44955;SDS011;30686;52.512;-1.188;2023-01-08T16:01:10;4.38;;;1.00;;
44955;SDS011;30686;52.512;-1.188;2023-01-08T16:03:39;1.95;;;1.00;;
44955;SDS011;30686;52.512;-1.188;2023-01-08T16:06:06;4.30;;;0.93;;
44955;SDS011;30686;52.512;-1.188;2023-01-08T16:08:32;3.35;;;1.35;;
44955;SDS011;30686;52.512;-1.188;2023-01-08T16:11:02;3.97;;;1.05;;
44955;SDS011;30686;52.512;-1.188;2023-01-08T16:13:39;1.80;;;0.90;;
44955;SDS011;30686;52.512;-1.188;2023-01-08T16:16:17;3.50;;;0.80;;
44955;SDS011;30686;52.512;-1.188;2023-01-08T16:18:50;1.52;;;0.90;;
44955;SDS011;30686;52.512;-1.188;2023-01-08T16:21:17;3.80;;;1.02;;